Time;durP1;ratioP1;P1;durP2;ratioP2;P2;SDS_P1;SDS_P2;PMS_P1;PMS_P2;Temp;Humidity;BMP_temperature;BMP_pressure;BME280_temperature;BME280_humidity;BME280_pressure;Samples;Min_cycle;Max_cycle;Signal;HPM_P1;HPM_P2
2022/09/28 00:00:49;;;;;;;9.75;6.60;;;8.30;99.90;;;;;;5030192;28;19940;-65
2022/09/28 00:03:14;;;;;;;10.15;6.22;;;8.20;99.90;;;;;;5012999;28;20496;-64
2022/09/28 00:05:40;;;;;;;7.88;6.57;;;8.20;99.90;;;;;;5015425;28;20125;-64
2022/09/28 00:08:05;;;;;;;11.45;6.53;;;8.30;99.90;;;;;;5033660;28;20112;-65
2022/09/28 00:10:31;;;;;;;9.02;6.15;;;8.30;99.90;;;;;;5032726;28;20084;-65
2022/09/28 00:13:00;;;;;;;10.50;7.10;;;8.40;99.90;;;;;;5026792;28;20500;-65
2022/09/28 00:15:26;;;;;;;10.35;7.00;;;8.30;99.90;;;;;;5024565;28;20057;-64
2022/09/28 00:17:51;;;;;;;7.55;6.70;;;8.40;99.90;;;;;;5024466;28;20073;-64
2022/09/28 00:20:18;;;;;;;8.85;7.30;;;8.40;99.90;;;;;;5018446;28;20037;-65
2022/09/28 00:22:44;;;;;;;10.88;7.55;;;8.30;99.90;;;;;;5032329;28;20045;-64
2022/09/28 00:25:09;;;;;;;10.15;7.00;;;8.20;99.90;;;;;;5029633;28;20103;-65
2022/09/28 00:27:35;;;;;;;11.73;8.93;;;8.30;99.90;;;;;;5027212;28;20088;-65
2022/09/28 00:30:00;;;;;;;9.20;7.47;;;8.30;99.90;;;;;;5031244;28;20040;-64
2022/09/28 00:32:26;;;;;;;10.45;6.85;;;8.20;99.90;;;;;;5033301;28;20487;-64
2022/09/28 00:34:52;;;;;;;9.95;7.57;;;8.20;99.90;;;;;;5016229;28;20029;-65
2022/09/28 00:37:18;;;;;;;9.95;7.18;;;8.10;99.90;;;;;;5020652;28;20056;-65
2022/09/28 00:39:44;;;;;;;10.73;7.90;;;7.90;99.90;;;;;;5017113;28;20038;-64
2022/09/28 00:42:15;;;;;;;10.25;8.18;;;8.20;99.90;;;;;;5013348;28;20029;-65
2022/09/28 00:44:43;;;;;;;14.02;7.30;;;8.10;99.90;;;;;;5021162;28;20046;-65
2022/09/28 00:47:13;;;;;;;12.50;8.75;;;8.00;99.90;;;;;;5027191;28;20038;-65
2022/09/28 00:49:43;;;;;;;11.30;8.40;;;8.10;99.90;;;;;;5013291;28;20061;-64
2022/09/28 00:52:18;;;;;;;14.25;8.73;;;8.10;99.90;;;;;;5012114;28;20071;-65
2022/09/28 00:54:46;;;;;;;11.05;8.00;;;8.10;99.90;;;;;;5025124;28;20042;-65
2022/09/28 00:57:13;;;;;;;11.30;7.15;;;8.00;99.90;;;;;;5013521;28;20084;-65
2022/09/28 00:59:40;;;;;;;11.82;8.10;;;8.00;99.90;;;;;;5011891;28;20546;-65
2022/09/28 01:02:06;;;;;;;15.30;9.85;;;8.10;99.90;;;;;;5015216;28;20046;-65
2022/09/28 01:04:31;;;;;;;14.15;9.02;;;8.10;99.90;;;;;;5023178;28;20060;-64
2022/09/28 01:06:58;;;;;;;12.32;9.57;;;8.00;99.90;;;;;;5011661;28;20046;-65
2022/09/28 01:09:26;;;;;;;17.23;9.68;;;8.30;99.90;;;;;;5012998;28;20038;-65
2022/09/28 01:11:51;;;;;;;13.70;8.80;;;;;;;;;;5013117;28;20061;-65
2022/09/28 01:14:18;;;;;;;11.98;7.82;;;;;;;;;;5012644;28;20076;-65
2022/09/28 01:17:05;;;;;;;9.98;8.25;;;8.40;99.90;;;;;;5011597;28;20049;-65
2022/09/28 01:19:57;;;;;;;12.07;8.27;;;8.40;99.90;;;;;;5017661;28;20080;-64
2022/09/28 01:22:35;;;;;;;10.75;7.70;;;8.20;99.90;;;;;;5030002;28;20076;-65
2022/09/28 01:25:12;;;;;;;14.30;8.48;;;8.30;99.90;;;;;;5011806;28;20439;-65
2022/09/28 01:27:47;;;;;;;11.75;8.20;;;8.10;99.90;;;;;;5014521;28;20407;-65
2022/09/28 01:30:18;;;;;;;10.98;7.95;;;8.20;99.90;;;;;;5022481;28;20072;-65
2022/09/28 01:33:04;;;;;;;10.80;8.60;;;8.20;99.90;;;;;;5015501;28;20555;-65
2022/09/28 01:35:38;;;;;;;68.25;10.77;;;8.30;99.90;;;;;;5015742;28;20038;-66
2022/09/28 01:38:16;;;;;;;15.77;7.18;;;8.20;99.90;;;;;;5015329;28;20038;-65
2022/09/28 01:40:43;;;;;;;21.17;8.48;;;8.10;99.90;;;;;;5016664;28;20488;-65
2022/09/28 01:43:20;;;;;;;14.90;8.75;;;8.00;99.90;;;;;;5019802;28;20041;-65
2022/09/28 01:45:53;;;;;;;9.75;7.28;;;8.10;99.90;;;;;;5029206;28;20438;-65
2022/09/28 01:48:24;;;;;;;9.48;7.47;;;8.00;99.90;;;;;;5018739;28;20113;-65
2022/09/28 01:50:54;;;;;;;11.15;7.70;;;8.00;99.90;;;;;;5026058;28;20041;-64
2022/09/28 01:53:36;;;;;;;14.38;8.10;;;7.90;99.90;;;;;;5031742;28;20080;-65
2022/09/28 01:56:09;;;;;;;12.48;7.90;;;7.90;99.90;;;;;;5016402;28;20045;-64
2022/09/28 01:58:55;;;;;;;18.05;8.23;;;8.00;99.90;;;;;;5015293;28;20076;-64
2022/09/28 02:01:28;;;;;;;12.10;7.63;;;7.90;99.90;;;;;;5016321;28;20034;-65
2022/09/28 02:04:35;;;;;;;10.90;7.72;;;8.00;99.90;;;;;;5016193;28;20072;-65
2022/09/28 02:07:09;;;;;;;13.40;7.70;;;7.90;99.90;;;;;;4991625;28;20499;-64
2022/09/28 02:09:40;;;;;;;9.07;6.47;;;7.80;99.90;;;;;;5015031;28;20046;-65
2022/09/28 02:12:31;;;;;;;16.55;7.72;;;7.80;99.90;;;;;;5032320;28;20415;-65
2022/09/28 02:15:09;;;;;;;8.63;7.07;;;7.70;99.90;;;;;;5022270;28;20056;-65
2022/09/28 02:17:35;;;;;;;10.18;6.28;;;7.80;99.90;;;;;;5016035;28;20433;-65
2022/09/28 02:20:01;;;;;;;29.50;7.80;;;7.60;99.90;;;;;;5028736;28;20060;-65
2022/09/28 02:22:41;;;;;;;17.33;7.00;;;7.80;99.90;;;;;;5029284;28;20045;-65
2022/09/28 02:25:09;;;;;;;41.40;8.95;;;7.70;99.90;;;;;;5016087;28;20060;-64
2022/09/28 02:27:41;;;;;;;16.25;6.70;;;7.50;99.90;;;;;;5020723;28;20561;-65
2022/09/28 02:30:08;;;;;;;13.07;7.38;;;7.80;99.90;;;;;;5027518;28;20116;-65
2022/09/28 02:32:39;;;;;;;13.90;8.13;;;7.70;99.90;;;;;;5029646;28;20519;-65
2022/09/28 02:35:16;;;;;;;122.72;12.38;;;7.80;99.90;;;;;;5034427;28;20439;-65
2022/09/28 02:37:42;;;;;;;19.35;8.00;;;;;;;;;;5020870;28;20045;-65
2022/09/28 02:40:16;;;;;;;47.65;9.18;;;7.60;99.90;;;;;;5015529;28;20049;-65
2022/09/28 02:43:00;;;;;;;67.72;8.90;;;7.80;99.90;;;;;;5015304;28;20049;-65
2022/09/28 02:45:49;;;;;;;121.45;11.77;;;7.60;99.90;;;;;;5029876;28;20095;-65
2022/09/28 02:48:18;;;;;;;53.45;9.45;;;7.60;99.90;;;;;;5032015;28;20399;-65
2022/09/28 02:51:29;;;;;;;41.80;8.80;;;7.50;99.90;;;;;;5014088;28;20053;-65
2022/09/28 02:54:26;;;;;;;29.50;7.72;;;7.60;99.90;;;;;;5001505;28;20054;-65
2022/09/28 02:57:12;;;;;;;23.20;7.53;;;7.60;99.90;;;;;;5015088;28;20038;-65
2022/09/28 03:00:10;;;;;;;10.25;6.95;;;7.70;99.90;;;;;;5015635;28;20045;-65
2022/09/28 03:02:54;;;;;;;11.10;6.80;;;7.70;99.90;;;;;;5013727;28;20038;-64
2022/09/28 03:05:51;;;;;;;7.43;6.63;;;7.60;99.90;;;;;;5015306;28;20109;-65
2022/09/28 03:08:32;;;;;;;11.30;6.78;;;7.80;99.90;;;;;;5014994;28;20046;-65
2022/09/28 03:11:06;;;;;;;60.35;7.75;;;7.60;99.90;;;;;;5013904;28;20088;-65
2022/09/28 03:13:34;;;;;;;28.17;6.82;;;7.50;99.90;;;;;;5013608;28;20041;-65
2022/09/28 03:16:14;;;;;;;24.50;6.63;;;7.40;99.90;;;;;;5013618;28;20050;-65
2022/09/28 03:18:40;;;;;;;10.80;5.95;;;7.50;99.90;;;;;;5013681;28;20488;-65
2022/09/28 03:21:06;;;;;;;80.05;9.27;;;7.60;99.90;;;;;;5013683;28;20575;-65
2022/09/28 03:23:32;;;;;;;10.63;5.97;;;;;;;;;;5027311;28;20052;-65
2022/09/28 03:25:58;;;;;;;9.68;6.05;;;7.20;99.90;;;;;;5013398;28;20037;-65
2022/09/28 03:28:24;;;;;;;7.18;6.07;;;7.10;99.90;;;;;;5022454;28;20026;-65
2022/09/28 03:30:50;;;;;;;6.93;5.57;;;;;;;;;;5020398;28;20443;-65
2022/09/28 03:33:16;;;;;;;6.60;5.90;;;7.00;99.90;;;;;;5014706;28;20037;-65
2022/09/28 03:35:45;;;;;;;9.18;6.55;;;7.20;99.90;;;;;;5026451;28;20041;-64
2022/09/28 03:38:11;;;;;;;6.15;5.53;;;6.90;99.90;;;;;;5029556;28;20572;-65
2022/09/28 03:40:36;;;;;;;6.10;5.50;;;7.20;99.90;;;;;;5013102;28;20042;-65
2022/09/28 03:43:02;;;;;;;6.40;5.65;;;7.10;99.90;;;;;;5014203;28;20160;-64
2022/09/28 03:45:27;;;;;;;6.72;6.03;;;7.00;99.90;;;;;;5030610;28;20064;-65
2022/09/28 03:47:53;;;;;;;8.85;5.95;;;7.10;99.90;;;;;;5019668;28;20121;-65
2022/09/28 03:50:19;;;;;;;7.63;5.55;;;7.10;99.90;;;;;;5013015;28;20037;-65
2022/09/28 03:52:44;;;;;;;5.78;5.18;;;7.10;99.90;;;;;;5014279;28;20419;-65
2022/09/28 03:55:10;;;;;;;19.73;5.68;;;7.10;99.90;;;;;;5031335;28;20045;-64
2022/09/28 03:57:36;;;;;;;23.25;7.72;;;7.10;99.90;;;;;;5023631;28;20049;-65
2022/09/28 04:00:04;;;;;;;74.78;10.35;;;7.10;99.90;;;;;;5014188;28;20042;-65
2022/09/28 04:02:29;;;;;;;49.45;9.55;;;7.20;99.90;;;;;;5013969;28;20557;-64
2022/09/28 04:04:55;;;;;;;26.63;7.65;;;;;;;;;;5013819;28;20045;-65
2022/09/28 04:07:21;;;;;;;38.95;8.63;;;6.90;99.90;;;;;;5013786;28;20058;-65
2022/09/28 04:09:47;;;;;;;34.35;8.45;;;6.90;99.90;;;;;;5012897;28;20045;-65
2022/09/28 04:12:12;;;;;;;30.70;8.57;;;6.90;99.90;;;;;;5012470;28;20088;-65
2022/09/28 04:14:38;;;;;;;58.40;10.55;;;7.00;99.90;;;;;;5012439;28;20056;-65
2022/09/28 04:17:05;;;;;;;62.35;10.70;;;6.90;99.90;;;;;;5016247;28;20155;-64
2022/09/28 04:19:30;;;;;;;20.17;8.68;;;6.90;99.90;;;;;;5032336;28;20041;-64
2022/09/28 04:21:56;;;;;;;29.85;11.20;;;6.80;99.90;;;;;;5018422;28;20408;-65
2022/09/28 04:24:21;;;;;;;19.88;10.50;;;6.90;99.90;;;;;;5012619;28;20046;-65
2022/09/28 04:26:48;;;;;;;10.55;9.30;;;6.70;99.90;;;;;;5008577;28;20048;-65
2022/09/28 04:29:17;;;;;;;24.88;11.23;;;;;;;;;;5032668;28;20045;-65
2022/09/28 04:31:51;;;;;;;16.00;9.30;;;6.90;99.90;;;;;;5012147;28;20057;-64
2022/09/28 04:34:19;;;;;;;13.02;10.35;;;6.90;99.90;;;;;;5013350;28;20568;-65
2022/09/28 04:36:46;;;;;;;11.95;9.80;;;7.00;99.90;;;;;;5012069;28;20046;-66
2022/09/28 04:39:13;;;;;;;11.43;9.38;;;7.10;99.90;;;;;;5012453;28;20396;-65
2022/09/28 04:41:40;;;;;;;12.07;9.80;;;6.90;99.90;;;;;;5012245;28;20442;-65
2022/09/28 04:44:05;;;;;;;10.82;9.48;;;7.00;99.90;;;;;;5018383;28;20044;-64
2022/09/28 04:46:31;;;;;;;10.15;8.52;;;7.00;99.90;;;;;;5029833;28;20029;-65
2022/09/28 04:48:57;;;;;;;11.13;8.90;;;;;;;;;;5011987;28;20050;-65
2022/09/28 04:51:23;;;;;;;10.65;9.00;;;7.10;99.90;;;;;;5014500;28;20052;-65
2022/09/28 04:53:49;;;;;;;9.55;8.55;;;7.20;99.90;;;;;;5024545;28;20053;-64
2022/09/28 04:56:16;;;;;;;11.27;9.15;;;7.30;99.90;;;;;;5013373;28;20056;-64
2022/09/28 04:58:42;;;;;;;10.73;9.07;;;7.30;99.90;;;;;;5013137;28;20038;-65
2022/09/28 05:01:12;;;;;;;10.32;8.40;;;7.20;99.90;;;;;;5013147;28;20060;-65
2022/09/28 05:03:37;;;;;;;10.20;8.88;;;7.20;99.90;;;;;;5013074;28;20049;-65
2022/09/28 05:06:03;;;;;;;10.98;9.40;;;7.20;99.90;;;;;;5011463;28;20045;-65
2022/09/28 05:08:29;;;;;;;11.98;9.43;;;7.30;99.90;;;;;;5012017;28;20129;-64
2022/09/28 05:11:03;;;;;;;11.60;9.50;;;7.20;99.90;;;;;;5013119;28;20116;-64
2022/09/28 05:13:29;;;;;;;13.15;8.65;;;7.20;99.90;;;;;;5012776;28;20488;-65
2022/09/28 05:15:56;;;;;;;10.90;8.55;;;7.30;99.90;;;;;;5011784;28;20069;-64
2022/09/28 05:18:22;;;;;;;15.57;11.85;;;7.30;99.90;;;;;;5012672;28;20069;-65
2022/09/28 05:20:48;;;;;;;15.32;11.30;;;7.40;99.90;;;;;;5011862;28;20099;-65
2022/09/28 05:23:14;;;;;;;14.60;10.73;;;7.50;99.90;;;;;;5023213;28;20041;-65
2022/09/28 05:25:40;;;;;;;15.48;11.63;;;7.40;99.90;;;;;;5015287;28;20563;-64
2022/09/28 05:28:06;;;;;;;14.25;11.38;;;7.50;99.90;;;;;;5018302;28;20061;-64
2022/09/28 05:30:33;;;;;;;15.77;11.45;;;7.40;99.90;;;;;;5021242;28;20484;-65
2022/09/28 05:32:59;;;;;;;15.85;10.85;;;7.40;99.90;;;;;;5012449;28;20041;-65
2022/09/28 05:35:25;;;;;;;16.70;12.43;;;7.40;99.90;;;;;;5012768;28;20046;-64
2022/09/28 05:37:50;;;;;;;20.27;13.35;;;7.30;99.90;;;;;;5012650;28;20081;-65
2022/09/28 05:40:16;;;;;;;22.58;13.77;;;7.50;99.90;;;;;;5011512;28;20034;-64
2022/09/28 05:42:42;;;;;;;19.83;13.45;;;7.40;99.90;;;;;;5011460;28;20038;-64
2022/09/28 05:45:09;;;;;;;19.65;13.88;;;7.50;99.90;;;;;;5025361;28;20430;-64
2022/09/28 05:47:42;;;;;;;19.77;13.18;;;7.40;99.90;;;;;;5019367;28;20046;-65
2022/09/28 05:50:10;;;;;;;22.92;14.85;;;7.50;99.90;;;;;;5011665;28;20431;-65
2022/09/28 05:52:39;;;;;;;18.55;12.52;;;7.50;99.90;;;;;;5011293;28;20052;-64
2022/09/28 05:55:06;;;;;;;20.02;13.77;;;7.50;99.90;;;;;;5012547;28;20038;-65
2022/09/28 05:57:32;;;;;;;17.25;12.10;;;7.60;99.90;;;;;;5011299;28;20444;-64
2022/09/28 05:59:57;;;;;;;17.38;12.70;;;7.60;99.90;;;;;;5012370;28;20048;-64
2022/09/28 06:02:23;;;;;;;18.20;12.48;;;7.60;99.90;;;;;;5012682;28;20038;-64
2022/09/28 06:04:50;;;;;;;18.00;13.40;;;7.70;99.90;;;;;;5012697;28;20148;-64
2022/09/28 06:07:16;;;;;;;19.45;13.20;;;7.70;99.90;;;;;;5025282;28;20041;-65
2022/09/28 06:09:41;;;;;;;18.70;12.07;;;7.70;99.90;;;;;;5014556;28;20049;-64
2022/09/28 06:12:07;;;;;;;17.70;12.52;;;7.80;99.90;;;;;;5032070;28;20053;-64
2022/09/28 06:14:33;;;;;;;21.27;13.60;;;;;;;;;;5031709;28;20091;-65
2022/09/28 06:16:59;;;;;;;20.58;13.02;;;7.90;99.90;;;;;;5030828;28;20155;-65
2022/09/28 06:19:24;;;;;;;21.05;14.23;;;7.80;99.90;;;;;;5034259;28;20210;-64
2022/09/28 06:21:50;;;;;;;22.33;14.63;;;7.90;99.90;;;;;;5035513;28;20037;-64
2022/09/28 06:24:15;;;;;;;20.30;13.63;;;8.10;99.90;;;;;;5035890;28;20044;-64
2022/09/28 06:26:41;;;;;;;19.92;14.38;;;8.00;99.90;;;;;;5034456;28;20041;-64
2022/09/28 06:29:06;;;;;;;20.00;14.05;;;8.10;99.90;;;;;;5034166;28;20052;-65
2022/09/28 06:31:32;;;;;;;21.58;13.15;;;8.10;99.90;;;;;;5014373;28;20121;-63
2022/09/28 06:34:00;;;;;;;18.77;13.35;;;8.30;99.90;;;;;;5018993;28;20073;-64
2022/09/28 06:36:32;;;;;;;21.80;13.70;;;8.20;99.90;;;;;;5033057;28;20539;-63
2022/09/28 06:38:58;;;;;;;19.02;13.35;;;8.30;99.90;;;;;;5033689;28;20045;-64
2022/09/28 06:41:23;;;;;;;22.15;14.80;;;8.30;99.90;;;;;;5034903;28;20029;-64
2022/09/28 06:43:51;;;;;;;22.35;13.73;;;;;;;;;;5033497;28;20451;-64
2022/09/28 06:46:16;;;;;;;21.13;13.93;;;8.30;99.90;;;;;;5033087;28;20549;-63
2022/09/28 06:48:43;;;;;;;19.60;13.63;;;8.30;99.90;;;;;;5034412;28;20037;-63
2022/09/28 06:51:09;;;;;;;19.55;13.13;;;8.50;99.90;;;;;;5034982;28;20033;-63
2022/09/28 06:53:35;;;;;;;24.92;14.60;;;8.60;99.90;;;;;;5017161;28;20045;-63
2022/09/28 06:56:01;;;;;;;22.42;14.02;;;8.50;99.90;;;;;;5033535;28;20049;-62
2022/09/28 06:58:27;;;;;;;22.08;14.40;;;;;;;;;;5034588;28;20049;-63
2022/09/28 07:00:58;;;;;;;19.35;13.13;;;8.70;99.90;;;;;;5009810;28;20041;-62
2022/09/28 07:03:25;;;;;;;22.92;13.68;;;;;;;;;;5029618;28;20415;-64
2022/09/28 07:05:52;;;;;;;23.73;14.48;;;;;;;;;;5034778;28;20049;-64
2022/09/28 07:08:20;;;;;;;23.10;14.73;;;9.00;99.90;;;;;;5034666;28;20052;-64
2022/09/28 07:10:47;;;;;;;21.15;13.98;;;;;;;;;;5034318;28;20112;-63
2022/09/28 07:13:14;;;;;;;20.42;13.35;;;9.30;99.90;;;;;;5033958;28;20419;-62
2022/09/28 07:15:41;;;;;;;22.15;13.27;;;9.40;99.90;;;;;;5034055;28;20194;-63
2022/09/28 07:18:07;;;;;;;18.65;12.57;;;9.60;99.90;;;;;;5016260;28;20048;-63
2022/09/28 07:20:34;;;;;;;19.30;12.15;;;9.40;99.90;;;;;;5034313;28;20029;-64
2022/09/28 07:23:02;;;;;;;18.27;12.82;;;9.60;99.90;;;;;;5031501;28;20046;-65
2022/09/28 07:25:29;;;;;;;21.17;12.68;;;9.50;99.90;;;;;;5033909;28;20049;-65
2022/09/28 07:27:59;;;;;;;21.05;12.70;;;9.60;99.90;;;;;;5032616;28;20478;-64
2022/09/28 07:30:31;;;;;;;22.40;13.27;;;9.90;99.90;;;;;;5033727;28;20483;-64
2022/09/28 07:32:58;;;;;;;17.40;12.27;;;10.40;99.90;;;;;;5018515;28;20077;-64
2022/09/28 07:35:24;;;;;;;19.48;12.38;;;10.60;99.90;;;;;;5024468;28;20037;-63
2022/09/28 07:37:58;;;;;;;19.05;12.77;;;11.20;99.90;;;;;;5012281;28;20088;-65
2022/09/28 07:43:08;;;;;;;20.10;11.25;;;;;;;;;;5018483;28;20383;-63
2022/09/28 07:45:35;;;;;;;17.77;11.73;;;11.80;99.90;;;;;;5020492;28;20042;-63
2022/09/28 07:48:01;;;;;;;18.30;10.80;;;;;;;;;;5014890;28;20057;-63
2022/09/28 07:50:27;;;;;;;17.23;11.82;;;11.60;99.90;;;;;;5013591;28;20073;-64
2022/09/28 07:52:53;;;;;;;17.55;9.40;;;;;;;;;;5014569;28;20097;-64
2022/09/28 07:55:19;;;;;;;14.55;10.10;;;;;;;;;;5016187;28;20034;-63
2022/09/28 07:57:46;;;;;;;15.18;9.32;;;11.70;99.90;;;;;;5028408;28;20038;-64
2022/09/28 08:00:13;;;;;;;15.38;10.50;;;11.70;99.90;;;;;;5033075;28;20087;-63
2022/09/28 08:02:38;;;;;;;17.25;11.43;;;11.50;99.90;;;;;;5031922;28;20045;-63
2022/09/28 08:05:04;;;;;;;18.73;11.43;;;11.40;99.90;;;;;;5032852;28;20438;-63
2022/09/28 08:07:31;;;;;;;16.92;11.40;;;;;;;;;;5031818;28;20029;-64
2022/09/28 08:09:57;;;;;;;17.13;10.95;;;;;;;;;;5014932;28;20483;-64
2022/09/28 08:12:23;;;;;;;14.95;10.57;;;11.80;99.90;;;;;;5017882;28;20050;-63
2022/09/28 08:14:51;;;;;;;15.80;10.00;;;;;;;;;;5031611;28;20060;-63
2022/09/28 08:17:16;;;;;;;14.85;9.93;;;12.30;99.90;;;;;;5031293;28;20381;-64
2022/09/28 08:22:29;;;;;;;11.35;8.32;;;12.50;99.90;;;;;;5031320;28;20049;-64
2022/09/28 08:24:54;;;;;;;13.02;8.60;;;12.80;99.90;;;;;;5031197;28;20037;-64
2022/09/28 08:27:20;;;;;;;10.35;6.75;;;;;;;;;;5031046;28;20037;-64
2022/09/28 08:29:46;;;;;;;11.93;7.22;;;12.80;99.90;;;;;;5031617;28;20131;-62
2022/09/28 08:32:11;;;;;;;8.23;6.20;;;13.00;99.90;;;;;;5030955;28;20045;-63
2022/09/28 08:34:38;;;;;;;11.88;6.93;;;13.20;99.90;;;;;;5032169;28;20041;-65
2022/09/28 08:37:06;;;;;;;10.93;6.32;;;13.00;99.90;;;;;;5032578;28;20053;-65
2022/09/28 08:39:33;;;;;;;9.55;5.43;;;13.70;99.90;;;;;;5031923;28;20047;-65
2022/09/28 08:42:40;;;;;;;9.32;5.60;;;13.40;99.90;;;;;;5030367;28;20045;-65
2022/09/28 08:45:10;;;;;;;9.20;6.45;;;13.30;99.90;;;;;;5031946;28;20561;-65
2022/09/28 08:50:55;;;;;;;12.80;7.18;;;13.40;99.90;;;;;;5023141;28;20049;-64
2022/09/28 08:53:33;;;;;;;7.60;5.47;;;13.40;99.90;;;;;;5030916;28;20056;-64
2022/09/28 08:56:04;;;;;;;11.07;6.75;;;13.50;99.90;;;;;;5031023;28;20171;-65
2022/09/28 08:58:35;;;;;;;9.45;5.57;;;13.50;99.90;;;;;;5030714;28;20045;-65
2022/09/28 09:01:04;;;;;;;11.18;5.40;;;14.60;99.90;;;;;;5032048;28;20021;-65
2022/09/28 09:03:36;;;;;;;7.20;4.72;;;15.20;99.90;;;;;;5030834;28;20576;-64
2022/09/28 09:06:29;;;;;;;8.63;5.00;;;15.10;99.90;;;;;;5031052;28;20045;-65
2022/09/28 09:09:32;;;;;;;6.18;4.60;;;15.00;99.90;;;;;;5032181;28;20071;-64
2022/09/28 09:12:37;;;;;;;9.75;6.38;;;17.90;99.90;;;;;;5018758;28;20077;-65
2022/09/28 09:15:19;;;;;;;5.28;2.83;;;18.50;99.90;;;;;;5024635;28;20050;-65
2022/09/28 09:18:15;;;;;;;7.38;3.45;;;18.80;99.90;;;;;;5025041;28;20045;-65
2022/09/28 09:20:43;;;;;;;7.57;4.47;;;17.60;99.90;;;;;;5030412;28;20081;-65
2022/09/28 09:23:22;;;;;;;12.68;6.70;;;17.80;99.90;;;;;;5029739;28;20049;-65
2022/09/28 09:25:58;;;;;;;6.20;2.47;;;19.40;99.90;;;;;;5028734;28;20168;-65
2022/09/28 09:28:43;;;;;;;7.47;3.47;;;18.40;99.90;;;;;;5031286;28;20049;-65
2022/09/28 09:31:25;;;;;;;5.45;2.95;;;17.00;99.90;;;;;;5027478;28;20045;-65
2022/09/28 09:34:19;;;;;;;5.95;2.22;;;16.40;99.90;;;;;;5031485;28;20041;-65
2022/09/28 09:37:03;;;;;;;8.93;2.67;;;15.80;99.90;;;;;;5027419;28;20111;-64
2022/09/28 09:40:06;;;;;;;5.55;2.50;;;15.20;99.90;;;;;;5012983;28;20502;-65
2022/09/28 09:43:02;;;;;;;2.25;1.60;;;15.00;99.90;;;;;;5028541;28;20400;-65
2022/09/28 09:45:51;;;;;;;6.53;2.97;;;14.90;99.90;;;;;;5016362;28;20067;-65
2022/09/28 09:48:44;;;;;;;5.30;2.17;;;16.50;99.90;;;;;;5005174;28;20598;-66
2022/09/28 09:51:51;;;;;;;3.70;1.00;;;18.20;99.90;;;;;;5006441;28;20042;-66
2022/09/28 09:54:23;;;;;;;1.42;0.68;;;18.60;99.90;;;;;;5014116;28;20407;-65
2022/09/28 09:57:21;;;;;;;2.28;0.93;;;18.10;99.90;;;;;;5021848;28;20488;-64
2022/09/28 09:59:48;;;;;;;1.55;0.93;;;16.80;99.90;;;;;;5034557;28;20372;-64
2022/09/28 10:02:24;;;;;;;6.45;1.38;;;16.20;99.90;;;;;;5034278;28;20040;-64
2022/09/28 10:04:54;;;;;;;6.82;1.05;;;16.70;99.90;;;;;;5035369;28;20088;-64
2022/09/28 10:07:32;;;;;;;4.45;0.80;;;16.50;99.90;;;;;;5025376;28;20095;-65
2022/09/28 10:10:00;;;;;;;3.13;0.77;;;16.70;99.90;;;;;;5035420;28;20056;-64
2022/09/28 10:12:26;;;;;;;4.40;1.05;;;;;;;;;;5022115;28;20450;-65
2022/09/28 10:14:54;;;;;;;2.00;0.82;;;18.30;99.90;;;;;;5033892;28;20052;-65
2022/09/28 10:17:25;;;;;;;3.42;0.50;;;17.30;99.90;;;;;;5033502;28;20045;-65
2022/09/28 10:19:52;;;;;;;4.43;0.68;;;16.60;99.90;;;;;;5033907;28;20041;-65
2022/09/28 10:22:22;;;;;;;3.13;0.50;;;16.10;99.90;;;;;;5034842;28;20041;-65
2022/09/28 10:24:53;;;;;;;2.22;0.60;;;15.50;99.90;;;;;;5035451;28;20041;-65
2022/09/28 10:27:27;;;;;;;3.42;0.70;;;15.20;99.90;;;;;;5033561;28;20534;-64
2022/09/28 10:30:12;;;;;;;3.40;0.98;;;14.70;99.90;;;;;;5033716;28;20055;-64
2022/09/28 10:32:46;;;;;;;3.38;1.05;;;14.60;99.90;;;;;;5018848;28;20074;-63
2022/09/28 10:35:17;;;;;;;4.80;0.95;;;14.70;99.90;;;;;;5020688;28;20038;-63
2022/09/28 10:37:49;;;;;;;3.08;1.13;;;14.80;99.90;;;;;;5034637;28;20168;-64
2022/09/28 10:40:32;;;;;;;1.55;0.88;;;14.90;99.90;;;;;;5034832;28;20069;-63
2022/09/28 10:43:00;;;;;;;2.15;0.95;;;14.70;99.90;;;;;;5018668;28;20044;-63
2022/09/28 10:45:30;;;;;;;2.15;0.90;;;14.60;99.90;;;;;;5029361;28;20053;-63
2022/09/28 10:47:59;;;;;;;2.80;0.85;;;14.60;99.90;;;;;;5019487;28;20053;-63
2022/09/28 10:50:26;;;;;;;1.10;0.80;;;14.50;99.90;;;;;;5033481;28;20045;-62
2022/09/28 10:52:52;;;;;;;1.88;0.70;;;14.50;99.90;;;;;;5021056;28;20042;-64
2022/09/28 10:55:25;;;;;;;3.22;0.70;;;14.60;99.90;;;;;;5014907;28;20042;-64
2022/09/28 10:57:51;;;;;;;0.80;0.43;;;14.60;99.90;;;;;;5013445;28;20054;-65
2022/09/28 11:00:29;;;;;;;0.50;0.40;;;14.50;99.90;;;;;;5014674;28;20040;-64
2022/09/28 11:02:55;;;;;;;1.95;0.57;;;14.50;99.90;;;;;;5026685;28;20044;-64
2022/09/28 11:05:26;;;;;;;0.85;0.50;;;14.50;99.90;;;;;;5033884;28;20045;-64
2022/09/28 11:07:54;;;;;;;1.50;0.75;;;;;;;;;;5034689;28;20103;-63
2022/09/28 11:10:25;;;;;;;0.95;0.50;;;14.30;99.90;;;;;;5032929;28;20063;-61
2022/09/28 11:12:52;;;;;;;3.13;0.50;;;14.20;99.90;;;;;;5033026;28;20052;-62
2022/09/28 11:15:20;;;;;;;2.20;0.63;;;14.20;99.90;;;;;;5016824;28;20108;-62
2022/09/28 11:17:45;;;;;;;1.77;0.63;;;14.10;99.90;;;;;;5020256;28;20046;-62
2022/09/28 11:20:23;;;;;;;1.42;0.40;;;14.10;99.90;;;;;;5028606;28;20037;-63
2022/09/28 11:22:54;;;;;;;1.95;0.50;;;14.00;99.90;;;;;;5032775;28;20045;-62
2022/09/28 11:25:21;;;;;;;0.95;0.45;;;13.90;99.90;;;;;;5019481;28;20038;-62
2022/09/28 11:27:52;;;;;;;0.50;0.50;;;14.00;99.90;;;;;;5015239;28;20056;-64
2022/09/28 11:30:37;;;;;;;1.38;0.60;;;13.90;99.90;;;;;;5021617;28;20396;-63
2022/09/28 11:33:13;;;;;;;1.57;0.70;;;13.70;99.90;;;;;;5014929;28;20071;-65
2022/09/28 11:35:48;;;;;;;1.65;0.70;;;13.90;99.90;;;;;;5013842;28;20052;-63
2022/09/28 11:38:20;;;;;;;;;;;13.90;99.90;;;;;;5014648;28;20037;-63
2022/09/28 11:41:14;;;;;;;2.63;0.60;;;14.00;99.90;;;;;;5020443;28;19956;-62
2022/09/28 11:43:51;;;;;;;1.15;0.60;;;14.20;99.90;;;;;;5029490;28;20407;-63
2022/09/28 11:46:46;;;;;;;2.35;0.77;;;14.30;99.90;;;;;;5033074;28;20096;-63
2022/09/28 11:49:46;;;;;;;0.50;0.43;;;14.30;99.90;;;;;;5024335;28;20043;-63
2022/09/28 11:52:32;;;;;;;3.72;0.80;;;14.30;99.90;;;;;;5018807;28;20061;-63
2022/09/28 11:55:09;;;;;;;4.75;0.70;;;14.60;99.90;;;;;;5033383;28;20099;-63
2022/09/28 11:57:39;;;;;;;1.20;0.88;;;14.70;99.90;;;;;;5033924;28;20053;-63
2022/09/28 12:00:12;;;;;;;1.20;0.73;;;14.70;99.90;;;;;;5033830;28;20128;-63
2022/09/28 12:02:59;;;;;;;1.30;0.95;;;14.70;99.90;;;;;;5032615;28;20041;-63
2022/09/28 12:05:29;;;;;;;2.28;0.60;;;14.70;99.90;;;;;;5032529;28;20034;-63
2022/09/28 12:08:02;;;;;;;1.30;0.60;;;14.70;99.90;;;;;;5025073;28;20144;-63
2022/09/28 12:10:46;;;;;;;1.35;0.60;;;14.70;99.90;;;;;;5032581;28;20087;-63
2022/09/28 12:13:18;;;;;;;1.98;0.60;;;14.60;99.90;;;;;;5025406;28;20045;-63
2022/09/28 12:16:03;;;;;;;3.50;0.55;;;14.70;99.90;;;;;;5032770;28;20085;-63
2022/09/28 12:18:40;;;;;;;0.95;0.50;;;14.70;99.90;;;;;;5031974;28;20066;-63
2022/09/28 12:21:27;;;;;;;1.75;0.50;;;14.80;99.90;;;;;;5032109;28;20077;-63
2022/09/28 12:23:59;;;;;;;1.20;0.65;;;14.90;99.90;;;;;;5028947;28;20103;-63
2022/09/28 12:26:37;;;;;;;1.98;0.60;;;14.80;99.90;;;;;;5033282;28;20042;-62
2022/09/28 12:29:10;;;;;;;1.30;0.47;;;14.90;99.90;;;;;;5032282;28;20075;-62
2022/09/28 12:31:50;;;;;;;0.70;0.65;;;14.90;99.90;;;;;;5018825;28;20045;-63
2022/09/28 12:34:16;;;;;;;1.83;0.50;;;15.20;99.90;;;;;;5031945;28;20516;-63
2022/09/28 12:37:00;;;;;;;1.02;0.60;;;15.00;99.90;;;;;;5033478;28;20048;-63
2022/09/28 12:39:40;;;;;;;0.95;0.40;;;15.20;99.90;;;;;;5018494;28;20046;-63
2022/09/28 12:42:30;;;;;;;1.98;0.70;;;15.10;99.90;;;;;;5013636;28;20046;-63
2022/09/28 12:45:17;;;;;;;0.95;0.50;;;15.10;99.90;;;;;;5023566;28;20045;-63
2022/09/28 12:48:09;;;;;;;3.42;0.70;;;15.30;99.90;;;;;;5031780;28;20091;-63
2022/09/28 12:51:00;;;;;;;4.22;0.47;;;15.00;99.90;;;;;;5012089;28;20057;-63
2022/09/28 12:53:54;;;;;;;1.42;0.57;;;15.10;99.90;;;;;;5011936;28;20061;-62
2022/09/28 12:56:30;;;;;;;2.67;0.60;;;14.90;99.90;;;;;;5013106;28;20037;-63
2022/09/28 12:59:28;;;;;;;1.95;0.50;;;14.80;99.90;;;;;;5020449;28;20116;-63
2022/09/28 13:01:57;;;;;;;3.90;0.85;;;14.80;99.90;;;;;;5027826;28;20069;-63
2022/09/28 13:04:51;;;;;;;1.90;0.55;;;14.60;99.90;;;;;;5021878;28;20037;-63
2022/09/28 13:07:36;;;;;;;4.57;0.70;;;14.60;99.90;;;;;;4997371;28;20567;-63
2022/09/28 13:10:40;;;;;;;1.80;0.52;;;14.50;99.90;;;;;;5013105;28;20496;-63
2022/09/28 13:13:24;;;;;;;0.98;0.60;;;14.20;99.90;;;;;;5011751;28;20042;-63
2022/09/28 13:16:09;;;;;;;2.80;0.70;;;14.00;99.90;;;;;;5028290;28;20096;-63
2022/09/28 13:18:46;;;;;;;2.90;0.70;;;14.40;99.90;;;;;;5008299;28;20517;-63
2022/09/28 13:21:44;;;;;;;1.67;0.50;;;14.10;99.90;;;;;;5012976;28;20048;-63
2022/09/28 13:24:17;;;;;;;1.35;0.38;;;14.10;99.90;;;;;;5030474;28;20127;-63
2022/09/28 13:26:45;;;;;;;0.60;0.43;;;14.00;99.90;;;;;;5020795;28;20037;-63
2022/09/28 13:29:17;;;;;;;2.40;0.60;;;14.10;99.90;;;;;;5033353;28;20108;-63